Time;durP1;ratioP1;P1;durP2;ratioP2;P2;SDS_P1;SDS_P2;PMS_P1;PMS_P2;Temp;Humidity;BMP_temperature;BMP_pressure;BME280_temperature;BME280_humidity;BME280_pressure;Samples;Min_cycle;Max_cycle;Signal;HPM_P1;HPM_P2
2023/07/12 00:00:50;;;;;;;7.33;3.23;;;19.30;99.90;;;;;;5095245;28;20044;-68
2023/07/12 00:03:17;;;;;;;7.97;3.40;;;19.30;99.90;;;;;;5094552;28;20438;-68
2023/07/12 00:05:44;;;;;;;6.50;3.60;;;19.30;99.90;;;;;;5094987;28;20051;-68
2023/07/12 00:08:18;;;;;;;6.30;3.80;;;19.30;99.90;;;;;;5092941;28;20047;-69
2023/07/12 00:10:44;;;;;;;6.65;4.05;;;19.30;99.90;;;;;;5095103;28;20072;-68
2023/07/12 00:13:10;;;;;;;7.03;3.47;;;19.30;99.90;;;;;;5094335;28;20488;-68
2023/07/12 00:15:37;;;;;;;6.30;3.57;;;19.30;99.90;;;;;;5094844;28;20048;-68
2023/07/12 00:18:10;;;;;;;8.13;3.63;;;19.30;99.90;;;;;;5094130;28;20565;-68
2023/07/12 00:20:36;;;;;;;5.50;3.17;;;19.30;99.90;;;;;;5094348;28;20480;-68
2023/07/12 00:23:03;;;;;;;7.50;3.67;;;19.30;99.90;;;;;;5094491;28;20138;-68
2023/07/12 00:25:33;;;;;;;5.33;3.40;;;19.30;99.90;;;;;;5094563;28;20048;-68
2023/07/12 00:28:00;;;;;;;7.83;3.43;;;19.20;99.90;;;;;;5094255;28;20044;-68
2023/07/12 00:30:34;;;;;;;5.60;3.50;;;19.20;99.90;;;;;;5094260;28;20036;-68
2023/07/12 00:33:03;;;;;;;6.93;3.70;;;19.20;99.90;;;;;;5094115;28;20139;-68
2023/07/12 00:35:30;;;;;;;6.90;3.77;;;19.10;99.90;;;;;;5094596;28;20052;-68
2023/07/12 00:38:01;;;;;;;5.33;3.47;;;19.20;99.90;;;;;;5094041;28;20040;-68
2023/07/12 00:40:46;;;;;;;7.30;4.03;;;19.10;99.90;;;;;;5094456;28;20048;-68
2023/07/12 00:43:19;;;;;;;5.83;3.87;;;19.10;99.90;;;;;;5092901;28;20196;-68
2023/07/12 00:45:46;;;;;;;9.13;4.10;;;19.10;99.90;;;;;;5094214;28;20104;-68
2023/07/12 00:48:13;;;;;;;5.30;3.47;;;19.00;99.90;;;;;;5093828;28;20181;-68
2023/07/12 00:50:40;;;;;;;5.80;3.80;;;19.10;99.90;;;;;;5094333;28;20048;-68
2023/07/12 00:53:13;;;;;;;6.07;3.77;;;19.00;99.90;;;;;;5093367;28;20549;-68
2023/07/12 00:55:58;;;;;;;6.63;3.83;;;19.00;99.90;;;;;;5093298;28;20059;-68
2023/07/12 00:58:25;;;;;;;5.80;3.40;;;19.00;99.90;;;;;;5093844;28;20233;-68
2023/07/12 01:00:52;;;;;;;7.73;4.23;;;18.90;99.90;;;;;;5093883;28;20282;-68
2023/07/12 01:03:21;;;;;;;7.40;4.23;;;18.90;99.90;;;;;;5093618;28;20063;-68
2023/07/12 01:05:47;;;;;;;6.60;3.63;;;18.90;99.90;;;;;;5093779;28;20052;-69
2023/07/12 01:08:14;;;;;;;8.57;3.90;;;18.90;99.90;;;;;;5093174;28;20044;-69
2023/07/12 01:10:39;;;;;;;8.30;3.73;;;18.90;99.90;;;;;;5093793;28;20090;-68
2023/07/12 01:13:07;;;;;;;7.47;3.87;;;18.80;99.90;;;;;;5093499;28;20080;-68
2023/07/12 01:15:34;;;;;;;7.57;3.93;;;18.80;99.90;;;;;;5093597;28;20442;-68
2023/07/12 01:18:00;;;;;;;8.47;4.00;;;18.80;99.90;;;;;;5093594;28;20044;-68
2023/07/12 01:20:26;;;;;;;7.37;3.97;;;18.80;99.90;;;;;;5092376;28;20048;-68
2023/07/12 01:22:53;;;;;;;6.33;3.53;;;18.80;99.90;;;;;;5093483;28;20050;-68
2023/07/12 01:25:54;;;;;;;7.77;4.23;;;18.80;99.90;;;;;;5093467;28;20470;-68
2023/07/12 01:28:20;;;;;;;8.80;4.00;;;18.80;99.90;;;;;;5092822;28;20044;-68
2023/07/12 01:30:46;;;;;;;8.07;3.77;;;18.70;99.90;;;;;;5091584;28;20544;-69
2023/07/12 01:33:11;;;;;;;7.30;4.17;;;18.80;99.90;;;;;;5093054;28;20074;-69
2023/07/12 01:35:37;;;;;;;9.63;4.30;;;18.70;99.90;;;;;;5093343;28;20052;-69
2023/07/12 01:38:03;;;;;;;9.90;4.00;;;18.80;99.90;;;;;;5093126;28;20036;-71
2023/07/12 01:40:28;;;;;;;9.30;4.67;;;18.70;99.90;;;;;;5093236;28;20092;-69
2023/07/12 01:42:54;;;;;;;10.37;4.10;;;18.70;99.90;;;;;;5093212;28;20047;-69
2023/07/12 01:45:20;;;;;;;9.07;4.33;;;18.80;99.90;;;;;;5091560;28;20521;-69
2023/07/12 01:47:45;;;;;;;8.50;4.30;;;18.70;99.90;;;;;;5093294;28;20047;-69
2023/07/12 01:50:11;;;;;;;9.13;4.37;;;18.60;99.90;;;;;;5092815;28;20396;-69
2023/07/12 01:52:37;;;;;;;9.40;4.53;;;18.60;99.90;;;;;;5091866;28;20054;-69
2023/07/12 01:55:03;;;;;;;10.03;3.63;;;18.60;99.90;;;;;;5093117;28;20047;-69
2023/07/12 01:57:28;;;;;;;8.53;4.30;;;18.60;99.90;;;;;;5092584;28;20098;-69
2023/07/12 01:59:54;;;;;;;12.57;4.80;;;18.60;99.90;;;;;;5093025;28;20051;-69
2023/07/12 02:02:20;;;;;;;7.27;3.90;;;18.60;99.90;;;;;;5091565;28;20040;-69
2023/07/12 02:04:45;;;;;;;11.47;4.60;;;18.60;99.90;;;;;;5092971;28;20182;-69
2023/07/12 02:07:11;;;;;;;9.83;3.97;;;18.60;99.90;;;;;;5092644;28;20040;-69
2023/07/12 02:09:40;;;;;;;9.10;3.80;;;18.60;99.90;;;;;;5092677;28;20091;-69
2023/07/12 02:12:06;;;;;;;11.33;4.43;;;18.60;99.90;;;;;;5092939;28;20051;-69
2023/07/12 02:14:32;;;;;;;9.77;4.20;;;18.60;99.90;;;;;;5092266;28;20084;-69
2023/07/12 02:16:58;;;;;;;12.63;4.30;;;18.60;99.90;;;;;;5092820;28;20075;-69
2023/07/12 02:19:23;;;;;;;10.87;4.47;;;18.60;99.90;;;;;;5092553;28;20515;-69
2023/07/12 02:21:49;;;;;;;10.63;4.37;;;18.50;99.90;;;;;;5091611;28;20433;-69
2023/07/12 02:24:15;;;;;;;11.47;4.47;;;18.50;99.90;;;;;;5091519;28;20098;-69
2023/07/12 02:26:41;;;;;;;12.77;4.27;;;18.50;99.90;;;;;;5092817;28;20044;-69
2023/07/12 02:29:07;;;;;;;13.07;4.43;;;18.50;99.90;;;;;;5092743;28;20048;-68
2023/07/12 02:31:33;;;;;;;13.57;4.37;;;18.50;99.90;;;;;;5093031;28;20059;-69
2023/07/12 02:33:59;;;;;;;15.20;4.50;;;18.50;99.90;;;;;;5095551;28;20040;-69
2023/07/12 02:36:25;;;;;;;10.70;4.30;;;18.50;99.90;;;;;;5096294;28;20549;-69
2023/07/12 02:38:51;;;;;;;10.73;3.83;;;18.40;99.90;;;;;;5096713;28;20044;-69
2023/07/12 02:41:17;;;;;;;10.00;4.47;;;18.40;99.90;;;;;;5096337;28;20051;-69
2023/07/12 02:43:45;;;;;;;12.93;5.60;;;18.40;99.90;;;;;;5096564;28;20092;-69
2023/07/12 02:46:10;;;;;;;12.00;4.07;;;18.50;99.90;;;;;;5096467;28;20036;-71
2023/07/12 02:48:37;;;;;;;11.73;3.97;;;18.40;99.90;;;;;;5096682;28;20472;-69
2023/07/12 02:51:03;;;;;;;13.37;5.17;;;18.40;99.90;;;;;;5096245;28;20506;-68
2023/07/12 02:53:28;;;;;;;11.87;4.43;;;18.40;99.90;;;;;;5096163;28;20044;-69
2023/07/12 02:55:55;;;;;;;12.63;5.10;;;18.40;99.90;;;;;;5096366;28;20048;-69
2023/07/12 02:58:21;;;;;;;12.47;5.17;;;18.40;99.90;;;;;;5095984;28;20040;-69
2023/07/12 03:00:47;;;;;;;11.90;4.53;;;18.40;99.90;;;;;;5096219;28;20043;-69
2023/07/12 03:03:13;;;;;;;15.43;4.33;;;18.40;99.90;;;;;;5096176;28;20055;-71
2023/07/12 03:05:40;;;;;;;12.50;4.67;;;18.40;99.90;;;;;;5096122;28;20434;-69
2023/07/12 03:08:06;;;;;;;13.67;4.47;;;18.40;99.90;;;;;;5095980;28;20079;-69
2023/07/12 03:10:35;;;;;;;11.77;5.10;;;18.40;99.90;;;;;;5095756;28;20083;-69
2023/07/12 03:13:01;;;;;;;12.57;4.20;;;18.40;99.90;;;;;;5096080;28;20051;-69
2023/07/12 03:15:26;;;;;;;16.73;5.57;;;18.40;99.90;;;;;;5095650;28;20048;-69
2023/07/12 03:17:52;;;;;;;13.00;4.73;;;18.40;99.90;;;;;;5094716;28;20055;-68
2023/07/12 03:20:18;;;;;;;11.33;4.60;;;18.30;99.90;;;;;;5095535;28;20500;-69
2023/07/12 03:22:43;;;;;;;13.37;4.43;;;18.40;99.90;;;;;;5095751;28;20048;-69
2023/07/12 03:25:09;;;;;;;15.33;4.87;;;18.30;99.90;;;;;;5094538;28;20128;-69
2023/07/12 03:27:35;;;;;;;12.90;5.17;;;18.30;99.90;;;;;;5095250;28;20539;-69
2023/07/12 03:30:00;;;;;;;14.63;5.40;;;18.30;99.90;;;;;;5095598;28;20445;-69
2023/07/12 03:32:26;;;;;;;13.00;4.77;;;18.40;99.90;;;;;;5094907;28;20056;-69
2023/07/12 03:34:52;;;;;;;11.60;5.50;;;18.30;99.90;;;;;;5095549;28;20048;-69
2023/07/12 03:37:17;;;;;;;14.13;4.30;;;18.30;99.90;;;;;;5095226;28;20094;-69
2023/07/12 03:39:44;;;;;;;10.77;4.50;;;18.30;99.90;;;;;;5095471;28;20056;-69
2023/07/12 03:42:09;;;;;;;15.80;5.20;;;18.30;99.90;;;;;;5095495;28;20044;-69
2023/07/12 03:44:35;;;;;;;15.13;4.90;;;18.30;99.90;;;;;;5094039;28;20044;-69
2023/07/12 03:47:01;;;;;;;14.60;5.03;;;18.30;99.90;;;;;;5095419;28;20040;-69
2023/07/12 03:49:28;;;;;;;13.87;4.60;;;18.30;99.90;;;;;;5095031;28;20079;-69
2023/07/12 03:51:53;;;;;;;11.57;4.83;;;18.30;99.90;;;;;;5095231;28;20117;-69
2023/07/12 03:54:21;;;;;;;12.17;5.63;;;18.30;99.90;;;;;;5094986;28;20464;-69
2023/07/12 03:56:47;;;;;;;18.53;5.60;;;18.30;99.90;;;;;;5093978;28;20104;-69
2023/07/12 03:59:13;;;;;;;18.53;5.20;;;18.30;99.90;;;;;;5095088;28;20044;-69
2023/07/12 04:01:38;;;;;;;16.33;5.17;;;18.20;99.90;;;;;;5094821;28;20050;-69
2023/07/12 04:04:05;;;;;;;20.20;4.47;;;18.20;99.90;;;;;;5094955;28;20128;-69
2023/07/12 04:06:32;;;;;;;18.70;5.50;;;18.20;99.90;;;;;;5094681;28;20052;-68
2023/07/12 04:08:58;;;;;;;17.33;4.63;;;18.20;99.90;;;;;;5094894;28;20048;-69
2023/07/12 04:11:30;;;;;;;13.80;4.90;;;18.20;99.90;;;;;;5094609;28;20052;-69
2023/07/12 04:13:59;;;;;;;16.10;4.43;;;18.10;99.90;;;;;;5095141;28;20349;-69
2023/07/12 04:16:25;;;;;;;14.23;4.63;;;18.10;99.90;;;;;;5094396;28;20048;-69
2023/07/12 04:18:52;;;;;;;14.93;4.40;;;18.10;99.90;;;;;;5094764;28;20051;-69
2023/07/12 04:21:18;;;;;;;15.33;4.57;;;18.10;99.90;;;;;;5094850;28;20040;-69
2023/07/12 04:23:47;;;;;;;16.93;4.67;;;18.10;99.90;;;;;;5093411;28;20494;-68
2023/07/12 04:26:13;;;;;;;14.37;4.30;;;18.10;99.90;;;;;;5094560;28;20082;-68
2023/07/12 04:28:39;;;;;;;19.33;5.60;;;18.10;99.90;;;;;;5092951;28;20090;-68
2023/07/12 04:31:09;;;;;;;18.07;4.77;;;18.10;99.90;;;;;;5093050;28;20060;-69
2023/07/12 04:33:34;;;;;;;13.97;4.57;;;18.10;99.90;;;;;;5094226;28;20123;-69
2023/07/12 04:36:05;;;;;;;16.83;5.00;;;18.10;99.90;;;;;;5094360;28;20185;-68
2023/07/12 04:38:32;;;;;;;18.87;4.97;;;18.10;99.90;;;;;;5094123;28;20047;-69
2023/07/12 04:40:57;;;;;;;15.53;5.07;;;18.10;99.90;;;;;;5094555;28;20056;-68
2023/07/12 04:43:23;;;;;;;16.43;6.50;;;18.10;99.90;;;;;;5093847;28;20043;-70
2023/07/12 04:45:49;;;;;;;16.70;5.17;;;18.10;99.90;;;;;;5094271;28;20047;-68
2023/07/12 04:48:15;;;;;;;17.40;5.83;;;18.10;99.90;;;;;;5094109;28;20072;-68
2023/07/12 04:50:42;;;;;;;19.80;4.93;;;18.10;99.90;;;;;;5092871;28;20073;-68
2023/07/12 04:53:07;;;;;;;15.73;4.33;;;18.10;99.90;;;;;;5094092;28;20048;-68
2023/07/12 04:55:34;;;;;;;20.47;5.37;;;18.20;99.90;;;;;;5093542;28;20526;-68
2023/07/12 04:58:00;;;;;;;17.40;5.07;;;18.20;99.90;;;;;;5093982;28;20051;-69
2023/07/12 05:00:25;;;;;;;16.23;4.83;;;18.20;99.90;;;;;;5093608;28;20044;-70
2023/07/12 05:02:53;;;;;;;19.23;5.37;;;18.20;99.90;;;;;;5094198;28;20506;-68
2023/07/12 05:05:20;;;;;;;18.87;5.10;;;18.20;99.90;;;;;;5092609;28;20040;-68
2023/07/12 05:07:46;;;;;;;17.87;5.70;;;18.20;99.90;;;;;;5093470;28;20048;-68
2023/07/12 05:10:12;;;;;;;22.17;5.07;;;18.30;99.90;;;;;;5093765;28;20048;-68
2023/07/12 05:12:39;;;;;;;18.60;5.23;;;18.30;99.90;;;;;;5093465;28;20040;-69
2023/07/12 05:15:06;;;;;;;15.83;5.03;;;18.30;99.90;;;;;;5093620;28;20097;-68
2023/07/12 05:17:37;;;;;;;19.53;5.40;;;18.30;99.90;;;;;;5093389;28;20055;-69
2023/07/12 05:20:05;;;;;;;16.80;4.73;;;18.40;99.90;;;;;;5093784;28;20083;-69
2023/07/12 05:22:31;;;;;;;20.00;4.77;;;18.40;99.90;;;;;;5093221;28;20131;-69
2023/07/12 05:24:58;;;;;;;17.23;5.17;;;18.60;99.90;;;;;;5093329;28;20123;-69
2023/07/12 05:27:24;;;;;;;15.53;4.33;;;18.70;99.90;;;;;;5093292;28;20086;-69
2023/07/12 05:29:50;;;;;;;16.00;4.77;;;18.80;99.90;;;;;;5093094;28;20076;-69
2023/07/12 05:32:16;;;;;;;15.07;5.30;;;18.80;99.90;;;;;;5092775;28;20491;-69
2023/07/12 05:34:41;;;;;;;19.90;5.17;;;18.90;99.90;;;;;;5092955;28;20052;-68
2023/07/12 05:37:08;;;;;;;15.27;5.10;;;19.10;99.90;;;;;;5093242;28;20071;-69
2023/07/12 05:39:34;;;;;;;19.43;4.40;;;19.20;99.90;;;;;;5092890;28;20040;-69
2023/07/12 05:42:00;;;;;;;18.47;4.77;;;19.20;99.90;;;;;;5093289;28;20067;-69
2023/07/12 05:44:25;;;;;;;14.33;4.70;;;19.20;99.90;;;;;;5093167;28;20127;-69
2023/07/12 05:46:51;;;;;;;20.23;5.40;;;19.40;99.90;;;;;;5092737;28;20044;-69
2023/07/12 05:49:17;;;;;;;14.83;4.73;;;19.40;99.90;;;;;;5093202;28;20052;-69
2023/07/12 05:51:43;;;;;;;19.37;5.40;;;19.50;99.90;;;;;;5092877;28;20540;-69
2023/07/12 05:54:08;;;;;;;16.17;4.70;;;19.50;99.90;;;;;;5093207;28;20507;-69
2023/07/12 05:56:34;;;;;;;16.40;4.77;;;19.50;99.90;;;;;;5092963;28;20048;-69
2023/07/12 05:59:00;;;;;;;15.57;4.83;;;19.60;99.90;;;;;;5093180;28;20131;-69
2023/07/12 06:01:26;;;;;;;14.13;4.17;;;20.30;99.90;;;;;;5092734;28;20083;-69
2023/07/12 06:03:53;;;;;;;16.37;4.67;;;20.70;99.90;;;;;;5092648;28;20133;-68
2023/07/12 06:06:19;;;;;;;15.33;4.30;;;21.30;99.90;;;;;;5093097;28;20127;-69
2023/07/12 06:08:45;;;;;;;14.87;5.57;;;21.50;99.90;;;;;;5096769;28;20080;-69
2023/07/12 06:11:10;;;;;;;21.93;4.73;;;21.40;99.90;;;;;;5097075;28;20359;-68
2023/07/12 06:13:37;;;;;;;14.37;4.20;;;21.40;99.90;;;;;;5095645;28;20056;-68
2023/07/12 06:16:03;;;;;;;14.53;4.33;;;22.00;99.90;;;;;;5097089;28;20087;-69
2023/07/12 06:18:32;;;;;;;17.90;5.30;;;22.90;99.90;;;;;;5096904;28;20044;-69
2023/07/12 06:21:00;;;;;;;17.17;4.20;;;23.10;99.90;;;;;;5096638;28;20395;-69
2023/07/12 06:23:26;;;;;;;14.30;3.80;;;23.40;99.90;;;;;;5096815;28;20123;-69
2023/07/12 06:25:56;;;;;;;11.67;3.93;;;24.00;99.90;;;;;;5096507;28;20047;-69
2023/07/12 06:28:22;;;;;;;15.63;4.67;;;24.40;99.90;;;;;;5096658;28;20500;-69
2023/07/12 06:30:48;;;;;;;17.73;4.67;;;24.80;99.90;;;;;;5095029;28;20090;-69
2023/07/12 06:33:13;;;;;;;12.40;4.00;;;24.60;99.90;;;;;;5096669;28;20092;-69
2023/07/12 06:35:39;;;;;;;12.90;4.20;;;24.40;99.90;;;;;;5096222;28;20126;-69
2023/07/12 06:38:05;;;;;;;13.47;4.07;;;25.30;99.90;;;;;;5096512;28;20040;-69
2023/07/12 06:40:31;;;;;;;15.87;4.63;;;26.20;99.90;;;;;;5096684;28;20043;-69
2023/07/12 06:42:57;;;;;;;12.07;4.07;;;26.70;99.90;;;;;;5094947;28;20487;-69
2023/07/12 06:45:23;;;;;;;10.43;3.40;;;26.70;99.90;;;;;;5095373;28;20476;-69
2023/07/12 06:47:49;;;;;;;12.40;3.40;;;26.80;99.90;;;;;;5096039;28;20043;-69
2023/07/12 06:50:15;;;;;;;12.83;4.27;;;27.00;99.90;;;;;;5096335;28;20044;-69
2023/07/12 06:52:40;;;;;;;13.73;3.73;;;27.80;99.90;;;;;;5094936;28;20387;-69
2023/07/12 06:55:06;;;;;;;11.63;3.70;;;27.70;99.90;;;;;;5096190;28;20048;-69
2023/07/12 06:57:34;;;;;;;12.23;3.70;;;27.40;99.90;;;;;;5096145;28;20475;-69
2023/07/12 07:00:04;;;;;;;13.97;4.43;;;26.70;99.90;;;;;;5095783;28;20109;-69
2023/07/12 07:02:30;;;;;;;15.67;4.13;;;26.30;99.90;;;;;;5096129;28;20044;-69
2023/07/12 07:04:55;;;;;;;14.57;3.63;;;26.50;99.90;;;;;;5095694;28;20108;-70
2023/07/12 07:07:21;;;;;;;10.57;3.43;;;26.70;99.90;;;;;;5095901;28;20046;-71
2023/07/12 07:09:47;;;;;;;11.90;3.43;;;26.80;99.90;;;;;;5094451;28;20476;-71
2023/07/12 07:12:13;;;;;;;11.33;3.63;;;26.20;99.90;;;;;;5095958;28;20130;-71
2023/07/12 07:14:39;;;;;;;15.80;3.50;;;25.70;99.90;;;;;;5095885;28;20109;-72
2023/07/12 07:17:07;;;;;;;12.93;3.73;;;26.00;99.90;;;;;;5095733;28;20044;-71
2023/07/12 07:19:32;;;;;;;9.07;3.40;;;25.70;99.90;;;;;;5095652;28;20093;-71
2023/07/12 07:21:58;;;;;;;8.57;3.07;;;25.40;99.90;;;;;;5095412;28;20048;-70
2023/07/12 07:24:24;;;;;;;8.23;2.73;;;25.40;99.90;;;;;;5095591;28;20087;-71
2023/07/12 07:26:50;;;;;;;7.10;2.63;;;26.10;99.90;;;;;;5094232;28;20040;-71
2023/07/12 07:29:15;;;;;;;8.67;3.40;;;27.10;98.30;;;;;;5095556;28;20044;-70
2023/07/12 07:31:41;;;;;;;8.82;3.40;;;28.00;96.40;;;;;;5095068;28;20480;-72
2023/07/12 07:34:07;;;;;;;10.15;3.65;;;29.10;93.10;;;;;;5095466;28;20048;-71
2023/07/12 07:36:33;;;;;;;9.45;3.35;;;29.70;90.70;;;;;;5095384;28;20193;-71
2023/07/12 07:38:59;;;;;;;10.23;3.58;;;30.40;83.70;;;;;;5095113;28;20527;-71
2023/07/12 07:41:25;;;;;;;14.13;3.80;;;30.10;79.20;;;;;;5095658;28;20138;-71
2023/07/12 07:43:50;;;;;;;10.07;3.78;;;29.00;87.50;;;;;;5095003;28;20056;-70
2023/07/12 07:46:16;;;;;;;10.65;3.90;;;27.70;93.50;;;;;;5095341;28;20044;-70
2023/07/12 07:48:42;;;;;;;10.30;3.50;;;26.60;98.70;;;;;;5095115;28;20084;-70
2023/07/12 07:51:08;;;;;;;10.50;3.80;;;25.70;99.90;;;;;;5095216;28;20044;-72
2023/07/12 07:53:34;;;;;;;11.23;3.70;;;25.10;99.90;;;;;;5093830;28;20051;-71
2023/07/12 07:56:00;;;;;;;12.57;3.35;;;24.50;99.90;;;;;;5094775;28;20131;-71
2023/07/12 07:58:26;;;;;;;14.93;3.53;;;24.10;99.90;;;;;;5095061;28;20448;-70
2023/07/12 08:00:52;;;;;;;11.37;3.27;;;23.70;99.90;;;;;;5094262;28;20048;-71
2023/07/12 08:03:18;;;;;;;14.13;4.43;;;23.50;99.90;;;;;;5093125;28;20040;-71
2023/07/12 08:05:45;;;;;;;11.43;3.10;;;23.20;99.90;;;;;;5094227;28;20051;-72
2023/07/12 08:08:11;;;;;;;16.77;3.80;;;23.00;99.90;;;;;;5094320;28;20099;-70
2023/07/12 08:10:37;;;;;;;11.57;3.17;;;22.80;99.90;;;;;;5094385;28;20090;-70
2023/07/12 08:13:03;;;;;;;11.03;3.83;;;22.60;99.90;;;;;;5094180;28;20071;-71
2023/07/12 08:15:29;;;;;;;12.87;4.20;;;22.40;99.90;;;;;;5094387;28;20058;-70
2023/07/12 08:17:55;;;;;;;10.90;3.13;;;22.30;99.90;;;;;;5094144;28;20040;-69
2023/07/12 08:20:23;;;;;;;14.23;4.50;;;22.40;99.90;;;;;;5093311;28;20056;-70
2023/07/12 08:22:48;;;;;;;10.40;3.33;;;22.60;99.90;;;;;;5092867;28;20093;-70
2023/07/12 08:25:14;;;;;;;8.73;3.10;;;22.60;99.90;;;;;;5093498;28;20135;-70
2023/07/12 08:27:40;;;;;;;8.03;2.77;;;22.60;99.90;;;;;;5094019;28;20421;-70
2023/07/12 08:30:07;;;;;;;7.70;2.60;;;22.40;99.90;;;;;;5093641;28;20048;-70
2023/07/12 08:32:34;;;;;;;9.43;2.80;;;22.20;99.90;;;;;;5094857;28;20059;-69
2023/07/12 08:35:00;;;;;;;8.83;2.97;;;22.00;99.90;;;;;;5094002;28;20483;-70
2023/07/12 08:37:27;;;;;;;7.87;2.50;;;21.90;99.90;;;;;;5094302;28;20050;-69
2023/07/12 08:39:53;;;;;;;9.63;2.63;;;21.80;99.90;;;;;;5093881;28;20048;-70
2023/07/12 08:42:22;;;;;;;12.53;2.80;;;21.80;99.90;;;;;;5094212;28;20051;-71
2023/07/12 08:44:48;;;;;;;18.87;4.30;;;21.90;99.90;;;;;;5094075;28;20466;-71
2023/07/12 08:47:21;;;;;;;9.97;2.83;;;22.00;99.90;;;;;;5093695;28;20083;-70
2023/07/12 08:49:48;;;;;;;10.73;2.70;;;22.00;99.90;;;;;;5094022;28;20055;-70
2023/07/12 08:52:22;;;;;;;7.63;2.30;;;21.80;99.90;;;;;;5094041;28;20090;-70
2023/07/12 08:54:48;;;;;;;7.63;2.57;;;21.60;99.90;;;;;;5094192;28;20387;-71
2023/07/12 08:57:18;;;;;;;9.83;3.70;;;21.50;99.90;;;;;;5093602;28;20638;-69
2023/07/12 09:00:07;;;;;;;8.83;2.67;;;21.50;99.90;;;;;;5093859;28;20051;-69
2023/07/12 09:02:34;;;;;;;10.00;2.90;;;21.90;99.90;;;;;;5092938;28;20468;-73
2023/07/12 09:05:11;;;;;;;10.80;2.67;;;22.30;99.90;;;;;;5093427;28;20048;-70
2023/07/12 09:07:37;;;;;;;7.00;2.33;;;22.50;99.90;;;;;;5093882;28;20090;-72
2023/07/12 09:10:05;;;;;;;6.63;2.87;;;22.60;99.90;;;;;;5093393;28;20123;-70
2023/07/12 09:12:34;;;;;;;7.40;2.70;;;22.60;99.90;;;;;;5093584;28;20084;-69
2023/07/12 09:15:11;;;;;;;10.40;3.33;;;22.70;99.90;;;;;;5093255;28;20491;-72
2023/07/12 09:17:44;;;;;;;7.20;2.50;;;22.90;99.90;;;;;;5093776;28;20076;-71
2023/07/12 09:20:26;;;;;;;6.50;2.20;;;23.20;99.90;;;;;;5093255;28;20044;-71
2023/07/12 09:22:53;;;;;;;8.17;2.33;;;23.50;99.90;;;;;;5093551;28;20278;-71
2023/07/12 09:25:23;;;;;;;7.23;2.40;;;23.50;99.90;;;;;;5093424;28;20051;-69
2023/07/12 09:27:49;;;;;;;6.57;2.37;;;23.40;99.90;;;;;;5093724;28;20044;-70
2023/07/12 09:30:22;;;;;;;6.33;1.97;;;23.30;99.90;;;;;;5093010;28;20480;-70
2023/07/12 09:32:49;;;;;;;6.70;2.00;;;23.40;99.90;;;;;;5092905;28;20074;-70
2023/07/12 09:35:41;;;;;;;5.87;2.00;;;23.60;99.90;;;;;;5092930;28;20104;-70
2023/07/12 09:38:12;;;;;;;6.17;2.10;;;23.70;99.90;;;;;;5092653;28;20083;-70
2023/07/12 09:40:41;;;;;;;7.57;2.30;;;23.60;99.90;;;;;;5092912;28;20097;-69
2023/07/12 09:43:23;;;;;;;6.87;2.83;;;23.40;99.90;;;;;;5092263;28;20048;-70
2023/07/12 09:46:05;;;;;;;6.70;2.30;;;23.40;99.90;;;;;;5093258;28;20126;-70
2023/07/12 09:48:47;;;;;;;9.17;2.50;;;23.40;99.90;;;;;;5092730;28;20495;-69
2023/07/12 09:51:22;;;;;;;9.77;2.63;;;23.40;99.90;;;;;;5092540;28;20511;-70
2023/07/12 09:53:56;;;;;;;6.07;2.20;;;23.40;99.90;;;;;;5093187;28;20051;-69
2023/07/12 09:56:33;;;;;;;6.40;2.17;;;23.40;99.90;;;;;;5093273;28;20044;-69
2023/07/12 09:59:06;;;;;;;5.50;2.30;;;23.40;99.90;;;;;;5092713;28;20040;-69
2023/07/12 10:02:00;;;;;;;7.03;2.20;;;23.20;99.90;;;;;;5091888;28;20396;-70
2023/07/12 10:04:47;;;;;;;6.77;2.00;;;23.10;99.90;;;;;;5091709;28;20097;-70
2023/07/12 10:07:56;;;;;;;6.93;2.33;;;22.90;99.90;;;;;;5092249;28;20482;-70
2023/07/12 10:10:23;;;;;;;7.30;2.03;;;22.90;99.90;;;;;;5092445;28;20051;-70
2023/07/12 10:13:15;;;;;;;5.27;1.90;;;22.90;99.90;;;;;;5091899;28;20044;-70
2023/07/12 10:15:41;;;;;;;6.87;2.20;;;22.90;99.90;;;;;;5063097;28;20063;-69
2023/07/12 10:18:15;;;;;;;6.63;2.20;;;22.80;99.90;;;;;;5092471;28;20591;-70
2023/07/12 10:20:42;;;;;;;8.13;2.97;;;22.60;99.90;;;;;;5092965;28;20047;-68
2023/07/12 10:23:10;;;;;;;4.73;2.20;;;22.60;99.90;;;;;;5092578;28;20040;-68
2023/07/12 10:25:37;;;;;;;7.17;2.20;;;22.60;99.90;;;;;;5092647;28;20048;-70
2023/07/12 10:28:17;;;;;;;5.53;2.10;;;22.60;99.90;;;;;;5092365;28;20098;-71
2023/07/12 10:30:46;;;;;;;5.47;2.10;;;22.50;99.90;;;;;;5092561;28;20044;-70
2023/07/12 10:33:20;;;;;;;4.53;1.77;;;22.50;99.90;;;;;;5092309;28;20059;-70
2023/07/12 10:35:54;;;;;;;7.32;1.95;;;22.50;99.90;;;;;;5092675;28;20052;-71
2023/07/12 10:38:21;;;;;;;5.60;1.77;;;22.60;99.90;;;;;;5092259;28;20044;-71
2023/07/12 10:40:59;;;;;;;4.27;1.50;;;22.70;99.90;;;;;;5091257;28;20047;-71
2023/07/12 10:43:33;;;;;;;5.27;2.03;;;22.80;99.90;;;;;;5092253;28;20126;-71
2023/07/12 10:46:09;;;;;;;4.63;1.80;;;22.80;99.90;;;;;;5092464;28;20043;-71
2023/07/12 10:48:37;;;;;;;5.80;1.60;;;22.70;99.90;;;;;;5072211;28;20064;-71
2023/07/12 10:51:24;;;;;;;5.60;2.03;;;22.70;99.90;;;;;;5071944;28;20137;-73
2023/07/12 10:53:53;;;;;;;5.70;1.57;;;22.60;99.90;;;;;;5073641;28;20186;-70
2023/07/12 10:56:26;;;;;;;4.07;1.57;;;22.60;99.90;;;;;;5075535;28;20082;-71
2023/07/12 10:58:52;;;;;;;4.37;1.47;;;22.60;99.90;;;;;;5076043;28;20116;-71
2023/07/12 11:01:43;;;;;;;6.03;2.20;;;22.60;99.90;;;;;;5075522;28;20557;-70
2023/07/12 11:04:11;;;;;;;4.50;1.53;;;22.60;99.90;;;;;;5075469;28;20378;-73
2023/07/12 11:07:08;;;;;;;3.87;1.50;;;22.60;99.90;;;;;;5075652;28;20558;-71
2023/07/12 11:09:45;;;;;;;6.00;2.00;;;22.80;99.90;;;;;;5075657;28;20045;-69
2023/07/12 11:12:31;;;;;;;4.80;1.53;;;22.90;99.90;;;;;;5075284;28;20048;-70
2023/07/12 11:15:24;;;;;;;4.90;1.67;;;22.90;99.90;;;;;;5082242;28;20040;-71
2023/07/12 11:18:00;;;;;;;5.50;1.50;;;22.90;99.90;;;;;;5089736;28;20067;-68
2023/07/12 11:20:30;;;;;;;6.57;1.90;;;22.70;99.90;;;;;;5093616;28;20392;-70
2023/07/12 11:23:27;;;;;;;4.07;1.37;;;22.70;99.90;;;;;;5090256;28;20407;-70
2023/07/12 11:26:00;;;;;;;5.47;1.87;;;22.80;99.90;;;;;;5088288;28;20174;-69
2023/07/12 11:28:47;;;;;;;7.53;1.67;;;22.80;99.90;;;;;;5087918;28;20476;-69
2023/07/12 11:31:23;;;;;;;4.17;1.53;;;22.90;99.90;;;;;;5093331;28;20151;-69
2023/07/12 11:33:52;;;;;;;4.13;1.40;;;22.90;99.30;;;;;;5091720;28;20105;-69
2023/07/12 11:36:24;;;;;;;2.67;1.20;;;22.70;99.40;;;;;;5088805;28;20050;-69
2023/07/12 11:38:51;;;;;;;5.67;1.80;;;22.70;98.30;;;;;;5090024;28;20058;-70
2023/07/12 11:41:28;;;;;;;5.37;1.40;;;22.60;98.30;;;;;;5093301;28;20046;-69
2023/07/12 11:44:01;;;;;;;6.97;1.70;;;22.60;98.00;;;;;;5086011;28;20067;-69
2023/07/12 11:46:34;;;;;;;3.90;1.60;;;22.50;98.20;;;;;;5091963;28;20066;-69
2023/07/12 11:49:20;;;;;;;4.70;1.60;;;22.60;98.00;;;;;;5094698;28;20143;-70
2023/07/12 11:51:49;;;;;;;5.30;1.70;;;22.60;99.20;;;;;;5094961;28;20093;-69
2023/07/12 11:54:34;;;;;;;6.03;1.60;;;22.60;98.90;;;;;;5094209;28;20032;-70
2023/07/12 11:57:02;;;;;;;6.95;1.40;;;22.60;98.50;;;;;;5092386;28;20087;-70
2023/07/12 11:59:31;;;;;;;5.57;1.60;;;22.60;98.90;;;;;;5093365;28;20051;-69
2023/07/12 12:01:57;;;;;;;5.97;1.50;;;22.60;98.30;;;;;;5094744;28;20105;-70
2023/07/12 12:04:26;;;;;;;4.17;1.23;;;22.50;97.60;;;;;;5092878;28;20048;-70
2023/07/12 12:06:59;;;;;;;6.00;1.63;;;22.50;97.10;;;;;;5092037;28;20044;-68
2023/07/12 12:09:28;;;;;;;8.17;1.50;;;22.50;97.30;;;;;;5094303;28;20044;-68
2023/07/12 12:11:55;;;;;;;4.03;1.47;;;22.50;97.20;;;;;;5094277;28;20108;-69
2023/07/12 12:14:27;;;;;;;3.13;1.37;;;22.40;97.50;;;;;;5093261;28;20051;-68
2023/07/12 12:16:54;;;;;;;4.33;1.10;;;22.40;97.60;;;;;;5091710;28;20499;-68
2023/07/12 12:19:22;;;;;;;4.83;1.40;;;22.40;97.50;;;;;;5093817;28;20048;-69
2023/07/12 12:21:50;;;;;;;2.90;1.40;;;22.50;97.50;;;;;;5094338;28;20079;-70
2023/07/12 12:24:19;;;;;;;3.63;1.27;;;22.50;96.90;;;;;;5093553;28;20395;-70
2023/07/12 12:26:46;;;;;;;3.13;1.00;;;22.50;97.30;;;;;;5091791;28;20051;-70
2023/07/12 12:29:23;;;;;;;5.53;1.77;;;22.60;97.30;;;;;;5093555;28;20135;-70
2023/07/12 12:31:54;;;;;;;3.60;1.57;;;22.60;95.20;;;;;;5094021;28;20060;-69
2023/07/12 12:34:21;;;;;;;4.23;1.47;;;22.50;94.50;;;;;;5093252;28;20044;-69
2023/07/12 12:37:07;;;;;;;7.67;1.27;;;22.40;95.00;;;;;;5091550;28;20052;-69
2023/07/12 12:39:33;;;;;;;6.03;1.43;;;22.50;96.80;;;;;;5093459;28;20085;-70
2023/07/12 12:42:06;;;;;;;4.07;1.37;;;22.50;96.70;;;;;;5093865;28;20036;-69
2023/07/12 12:44:36;;;;;;;3.23;1.30;;;22.50;98.20;;;;;;5092953;28;20048;-69
2023/07/12 12:47:14;;;;;;;4.77;1.40;;;22.60;97.90;;;;;;5091507;28;20116;-70
2023/07/12 12:49:41;;;;;;;3.23;1.10;;;22.50;94.20;;;;;;5093902;28;20170;-70